Vintana — FAD2105 — position and weather

sailwx.info

Track history (hours):
 
Tides and Currents Weather Stations Pressure Air Temp Water Temp Dewpoint Dewpoint Depression Visibility Wind Speed Wind Dir Waves Ship Positions

Vintana

Last reported at 2018-Jan-02 13:20 UTC. Time now 2018-Jan-18 14:03 UTC.
Position N 47°30' W 002°27'.
Warning: this ship's position is 16 days out of date.

MMSI: 227370260.

Date/timePositionNaut miles runAvg speedWind from/ knotsBaromVisibWave heightAir tempDewpointWater temp
2018-Jan-02 13:20N 47°30' W 002°27'2 6.6
2018-Jan-02 12:59N 47°30' W 002°31'3 6.5
2018-Jan-02 12:30N 47°29' W 002°35'3 6.4
2018-Jan-02 11:59N 47°28' W 002°40'7 6.3
2018-Jan-02 10:48N 47°29' W 002°51'2 6.2
2018-Jan-02 10:28N 47°29' W 002°53'3 6.0
2018-Jan-02 10:00N 47°32' W 002°55'  
2017-Dec-29 10:12N 47°33' W 002°54'0 0.0
2017-Dec-29 10:00N 47°33' W 002°54'0 0.0
2017-Dec-29 09:30N 47°33' W 002°54'0 0.0
2017-Dec-29 09:00N 47°33' W 002°54'0 0.0
2017-Dec-29 08:30N 47°33' W 002°54'0 0.0
2017-Dec-29 08:00N 47°33' W 002°54'0 0.0
2017-Dec-29 07:30N 47°33' W 002°54'0 0.0
2017-Dec-29 07:00N 47°33' W 002°54'0 0.0
2017-Dec-29 06:30N 47°33' W 002°54'0 0.0
2017-Dec-29 06:00N 47°33' W 002°54'0 0.0
2017-Dec-29 05:30N 47°33' W 002°54'0 0.0
2017-Dec-29 04:57N 47°33' W 002°54'0 0.0
2017-Dec-29 04:30N 47°33' W 002°54'0 0.0
2017-Dec-29 04:00N 47°33' W 002°54'0 0.0
2017-Dec-29 03:30N 47°33' W 002°54'0 0.0
2017-Dec-29 03:00N 47°33' W 002°54'0 0.0
2017-Dec-29 02:30N 47°33' W 002°54'0 0.0
2017-Dec-29 02:00N 47°33' W 002°54'0 0.0
2017-Dec-29 01:30N 47°33' W 002°54'0 0.0
2017-Dec-29 01:00N 47°33' W 002°54'0 0.0
2017-Dec-29 00:30N 47°33' W 002°54'0 0.0
2017-Dec-29 00:00N 47°33' W 002°54'0 0.0
2017-Dec-28 23:30N 47°33' W 002°54'0 0.0
2017-Dec-28 23:00N 47°33' W 002°54'0 0.0
2017-Dec-28 22:27N 47°33' W 002°54'0 0.0
2017-Dec-28 22:00N 47°33' W 002°54'0 0.0
2017-Dec-28 21:30N 47°33' W 002°54'0 0.0
2017-Dec-28 21:00N 47°33' W 002°54'0 0.0
2017-Dec-28 20:30N 47°33' W 002°54'0 0.0
2017-Dec-28 20:00N 47°33' W 002°54'0 0.0
2017-Dec-28 19:30N 47°33' W 002°54'0 0.0
2017-Dec-28 19:00N 47°33' W 002°54'0 0.0
2017-Dec-28 18:30N 47°33' W 002°54'0 0.0
2017-Dec-28 18:00N 47°33' W 002°54'0 0.0
2017-Dec-28 17:30N 47°33' W 002°54'0 0.0
2017-Dec-28 17:00N 47°33' W 002°54'0 0.0
2017-Dec-28 16:30N 47°33' W 002°54'0 0.0
2017-Dec-28 15:57N 47°33' W 002°54'0 0.0
2017-Dec-28 15:30N 47°33' W 002°54'0 0.0
2017-Dec-28 15:00N 47°33' W 002°54'  
Track history (hours):
 
Tides and Currents Weather Stations Pressure Air Temp Water Temp Dewpoint Dewpoint Depression Visibility Wind Speed Wind Dir Waves Ship Positions

Vintana

Last reported at 2018-Jan-02 13:20 UTC. Time now 2018-Jan-18 14:03 UTC.
Position N 47°30' W 002°27'.
Warning: this ship's position is 16 days out of date.

MMSI: 227370260.

Date/timePositionNaut miles runAvg speedWind from/ knotsBaromVisibWave heightAir tempDewpointWater temp
2018-Jan-02 13:20N 47°30' W 002°27'2 6.6
2018-Jan-02 12:59N 47°30' W 002°31'3 6.5
2018-Jan-02 12:30N 47°29' W 002°35'3 6.4
2018-Jan-02 11:59N 47°28' W 002°40'7 6.3
2018-Jan-02 10:48N 47°29' W 002°51'2 6.2
2018-Jan-02 10:28N 47°29' W 002°53'3 6.0
2018-Jan-02 10:00N 47°32' W 002°55'  
2017-Dec-29 10:12N 47°33' W 002°54'0 0.0
2017-Dec-29 10:00N 47°33' W 002°54'0 0.0
2017-Dec-29 09:30N 47°33' W 002°54'0 0.0
2017-Dec-29 09:00N 47°33' W 002°54'0 0.0
2017-Dec-29 08:30N 47°33' W 002°54'0 0.0
2017-Dec-29 08:00N 47°33' W 002°54'0 0.0
2017-Dec-29 07:30N 47°33' W 002°54'0 0.0
2017-Dec-29 07:00N 47°33' W 002°54'0 0.0
2017-Dec-29 06:30N 47°33' W 002°54'0 0.0
2017-Dec-29 06:00N 47°33' W 002°54'0 0.0
2017-Dec-29 05:30N 47°33' W 002°54'0 0.0
2017-Dec-29 04:57N 47°33' W 002°54'0 0.0
2017-Dec-29 04:30N 47°33' W 002°54'0 0.0
2017-Dec-29 04:00N 47°33' W 002°54'0 0.0
2017-Dec-29 03:30N 47°33' W 002°54'0 0.0
2017-Dec-29 03:00N 47°33' W 002°54'0 0.0
2017-Dec-29 02:30N 47°33' W 002°54'0 0.0
2017-Dec-29 02:00N 47°33' W 002°54'0 0.0
2017-Dec-29 01:30N 47°33' W 002°54'0 0.0
2017-Dec-29 01:00N 47°33' W 002°54'0 0.0
2017-Dec-29 00:30N 47°33' W 002°54'0 0.0
2017-Dec-29 00:00N 47°33' W 002°54'0 0.0
2017-Dec-28 23:30N 47°33' W 002°54'0 0.0
2017-Dec-28 23:00N 47°33' W 002°54'0 0.0
2017-Dec-28 22:27N 47°33' W 002°54'0 0.0
2017-Dec-28 22:00N 47°33' W 002°54'0 0.0
2017-Dec-28 21:30N 47°33' W 002°54'0 0.0
2017-Dec-28 21:00N 47°33' W 002°54'0 0.0
2017-Dec-28 20:30N 47°33' W 002°54'0 0.0
2017-Dec-28 20:00N 47°33' W 002°54'0 0.0
2017-Dec-28 19:30N 47°33' W 002°54'0 0.0
2017-Dec-28 19:00N 47°33' W 002°54'0 0.0
2017-Dec-28 18:30N 47°33' W 002°54'0 0.0
2017-Dec-28 18:00N 47°33' W 002°54'0 0.0
2017-Dec-28 17:30N 47°33' W 002°54'0 0.0
2017-Dec-28 17:00N 47°33' W 002°54'0 0.0
2017-Dec-28 16:30N 47°33' W 002°54'0 0.0
2017-Dec-28 15:57N 47°33' W 002°54'0 0.0
2017-Dec-28 15:30N 47°33' W 002°54'0 0.0
2017-Dec-28 15:00N 47°33' W 002°54'  

Dump ship's entire track history